createdAt,value
2019-04-07T00:00:28.291Z,24.32
2019-04-07T00:03:00.219Z,24.00
2019-04-07T00:05:32.119Z,27.73
2019-04-07T00:08:03.675Z,22.82
2019-04-07T00:10:35.623Z,21.05
2019-04-07T00:13:07.192Z,22.90
2019-04-07T00:15:38.990Z,23.07
2019-04-07T00:18:10.640Z,21.87
2019-04-07T00:20:42.226Z,18.30
2019-04-07T00:23:14.815Z,18.35
2019-04-07T00:25:46.772Z,16.75
2019-04-07T00:28:19.654Z,20.15
2019-04-07T00:30:51.419Z,18.73
2019-04-07T00:33:24.024Z,18.73
2019-04-07T00:35:55.907Z,20.75
2019-04-07T00:38:27.488Z,18.32
2019-04-07T00:40:59.249Z,18.32
2019-04-07T00:43:30.684Z,20.00
2019-04-07T00:46:02.433Z,17.52
2019-04-07T00:48:34.030Z,16.00
2019-04-07T00:51:05.374Z,18.90
2019-04-07T00:53:37.529Z,17.45
2019-04-07T00:56:09.374Z,15.28
2019-04-07T00:58:40.822Z,15.55
2019-04-07T01:01:14.169Z,19.48
2019-04-07T01:03:45.732Z,17.80
2019-04-07T01:06:17.566Z,16.17
2019-04-07T01:08:50.123Z,17.00
2019-04-07T01:11:21.639Z,18.42
2019-04-07T01:13:53.951Z,14.03
2019-04-07T01:16:25.473Z,16.05
2019-04-07T01:18:57.015Z,14.95
2019-04-07T01:21:29.172Z,14.33
2019-04-07T01:24:00.738Z,13.62
2019-04-07T01:26:32.713Z,15.48
2019-04-07T01:29:04.673Z,16.32
2019-04-07T01:31:36.229Z,17.37
2019-04-07T01:34:08.196Z,13.43
2019-04-07T01:36:39.775Z,14.30
2019-04-07T01:39:12.026Z,15.58
2019-04-07T01:42:05.899Z,14.43
2019-04-07T01:44:56.131Z,14.15
2019-04-07T01:47:44.268Z,14.18
2019-04-07T01:50:37.602Z,12.53
2019-04-07T01:53:38.604Z,13.15
2019-04-07T01:56:32.609Z,12.82
2019-04-07T01:59:13.473Z,12.45
2019-04-07T02:02:07.157Z,13.78
2019-04-07T02:04:56.124Z,14.80
2019-04-07T02:07:47.375Z,11.25
2019-04-07T02:10:31.571Z,14.87
2019-04-07T02:13:27.560Z,16.82
2019-04-07T02:16:23.750Z,12.10
2019-04-07T02:19:14.220Z,12.43
2019-04-07T02:22:04.651Z,11.15
2019-04-07T02:24:49.919Z,12.03
2019-04-07T02:27:30.693Z,15.32
2019-04-07T02:30:14.367Z,15.65
2019-04-07T02:33:03.899Z,16.35
2019-04-07T02:36:21.570Z,14.87
2019-04-07T02:38:56.100Z,13.13
2019-04-07T02:41:44.814Z,12.78
2019-04-07T02:44:48.243Z,14.73
2019-04-07T02:47:31.540Z,14.30
2019-04-07T02:50:39.964Z,11.53
2019-04-07T02:53:45.510Z,11.33
2019-04-07T02:56:37.110Z,13.50
2019-04-07T02:59:25.738Z,15.23
2019-04-07T03:02:03.310Z,16.23
2019-04-07T03:04:56.955Z,13.45
2019-04-07T03:07:48.690Z,12.55
2019-04-07T03:10:31.204Z,14.10
2019-04-07T03:13:19.218Z,18.05
2019-04-07T03:16:19.238Z,11.28
2019-04-07T03:19:15.775Z,12.63
2019-04-07T03:22:06.393Z,13.40
2019-04-07T03:24:57.302Z,16.50
2019-04-07T03:27:57.852Z,12.63
2019-04-07T03:30:40.945Z,12.60
2019-04-07T03:33:40.675Z,14.43
2019-04-07T03:36:30.230Z,14.00
2019-04-07T03:39:30.138Z,15.20
2019-04-07T03:42:26.292Z,15.75
2019-04-07T03:45:20.344Z,12.65
2019-04-07T03:48:17.770Z,13.20
2019-04-07T03:51:05.349Z,13.22
2019-04-07T03:53:52.144Z,12.53
2019-04-07T03:56:37.354Z,13.95
2019-04-07T03:59:42.696Z,13.03
2019-04-07T04:02:39.146Z,16.67
2019-04-07T04:05:29.713Z,15.72
2019-04-07T04:08:19.337Z,14.25
2019-04-07T04:11:12.775Z,13.95
2019-04-07T04:14:03.056Z,17.00
2019-04-07T04:16:42.843Z,13.22
2019-04-07T04:19:14.539Z,14.65
2019-04-07T04:21:46.218Z,13.50
2019-04-07T04:24:18.509Z,15.15
2019-04-07T04:26:51.715Z,16.55
2019-04-07T04:29:24.605Z,16.27
2019-04-07T04:31:57.177Z,15.68
2019-04-07T04:34:28.929Z,16.17
2019-04-07T04:37:00.432Z,16.57
2019-04-07T04:39:31.951Z,13.43
2019-04-07T04:42:03.972Z,17.32
2019-04-07T04:44:35.942Z,16.25
2019-04-07T04:47:08.102Z,14.85
2019-04-07T04:49:40.360Z,14.83
2019-04-07T04:52:12.243Z,15.80
2019-04-07T04:54:43.893Z,17.27
2019-04-07T04:57:15.479Z,20.35
2019-04-07T04:59:46.874Z,16.45
2019-04-07T05:02:18.091Z,15.55
2019-04-07T05:04:49.742Z,14.78
2019-04-07T05:07:22.189Z,18.52
2019-04-07T05:09:55.726Z,17.77
2019-04-07T05:12:27.490Z,15.03
2019-04-07T05:14:59.209Z,17.77
2019-04-07T05:17:31.135Z,14.78
2019-04-07T05:20:02.936Z,18.85
2019-04-07T05:22:34.223Z,13.78
2019-04-07T05:25:06.999Z,17.12
2019-04-07T05:27:39.197Z,24.98
2019-04-07T05:30:11.233Z,18.17
2019-04-07T05:32:43.174Z,17.12
2019-04-07T05:35:14.936Z,15.98
2019-04-07T05:37:46.352Z,19.85
2019-04-07T05:40:17.648Z,14.78
2019-04-07T05:42:49.669Z,18.45
2019-04-07T05:45:21.482Z,20.48
2019-04-07T05:47:53.492Z,17.55
2019-04-07T05:50:27.455Z,16.30
2019-04-07T05:52:58.780Z,19.77
2019-04-07T05:55:30.502Z,16.07
2019-04-07T05:58:05.204Z,17.60
2019-04-07T06:00:35.088Z,17.98
2019-04-07T06:03:08.435Z,17.65
2019-04-07T06:05:40.141Z,16.65
2019-04-07T06:08:26.002Z,18.98
2019-04-07T06:10:45.881Z,20.00
2019-04-07T06:13:17.614Z,18.12
2019-04-07T06:15:51.944Z,20.00
2019-04-07T06:18:23.949Z,22.73
2019-04-07T06:20:56.369Z,22.37
2019-04-07T06:23:29.867Z,23.75
2019-04-07T06:26:02.010Z,21.20
2019-04-07T06:28:33.838Z,18.42
2019-04-07T06:31:06.517Z,21.87
2019-04-07T06:33:39.246Z,25.45
2019-04-07T06:36:11.506Z,24.05
2019-04-07T06:38:50.885Z,27.58
2019-04-07T06:41:17.300Z,28.65
2019-04-07T06:43:49.599Z,34.70
2019-04-07T06:46:33.231Z,26.37
2019-04-07T06:49:22.078Z,23.73
2019-04-07T06:52:02.820Z,26.45
2019-04-07T06:54:55.664Z,26.35
2019-04-07T06:57:49.183Z,27.50
2019-04-07T07:00:29.202Z,25.43
2019-04-07T07:03:35.890Z,24.32
2019-04-07T07:06:21.944Z,24.20
2019-04-07T07:09:26.559Z,26.57
2019-04-07T07:12:22.487Z,29.10
2019-04-07T07:15:20.612Z,30.30
2019-04-07T07:18:22.936Z,31.95
2019-04-07T07:21:11.089Z,25.57
2019-04-07T07:23:47.722Z,23.75
2019-04-07T07:26:16.097Z,21.37
2019-04-07T07:28:47.743Z,22.30
2019-04-07T07:31:22.844Z,25.27
2019-04-07T07:33:51.936Z,24.13
2019-04-07T07:36:23.978Z,24.27
2019-04-07T07:39:01.665Z,25.23
2019-04-07T07:41:29.253Z,21.23
2019-04-07T07:44:03.460Z,22.43
2019-04-07T07:46:33.336Z,27.13
2019-04-07T07:49:04.279Z,21.23
2019-04-07T07:51:38.428Z,23.90
2019-04-07T07:54:08.823Z,21.68
2019-04-07T07:56:42.445Z,21.95
2019-04-07T07:59:14.539Z,25.20
2019-04-07T08:01:47.045Z,22.30
2019-04-07T08:04:19.104Z,26.00
2019-04-07T08:06:50.277Z,22.53
2019-04-07T08:09:24.958Z,22.73
2019-04-07T08:11:55.352Z,25.63
2019-04-07T08:14:27.334Z,26.00
2019-04-07T08:17:02.244Z,24.33
2019-04-07T08:19:31.810Z,24.00
2019-04-07T08:22:03.139Z,25.23
2019-04-07T08:24:35.114Z,29.33
2019-04-07T08:27:06.390Z,22.73
2019-04-07T08:29:39.042Z,23.23
2019-04-07T08:32:11.084Z,23.83
2019-04-07T08:34:43.771Z,23.57
2019-04-07T08:37:15.516Z,22.97
2019-04-07T08:39:47.565Z,21.40
2019-04-07T08:42:19.748Z,21.87
2019-04-07T08:44:52.004Z,21.00
2019-04-07T08:47:23.427Z,21.87
2019-04-07T08:49:56.868Z,24.43
2019-04-07T08:52:28.178Z,21.80
2019-04-07T08:54:59.373Z,21.53
2019-04-07T08:57:32.268Z,23.87
2019-04-07T09:00:05.084Z,19.23
2019-04-07T09:02:38.213Z,24.83
2019-04-07T09:05:10.407Z,27.13
2019-04-07T09:07:42.160Z,20.10
2019-04-07T09:10:20.443Z,20.90
2019-04-07T09:12:51.157Z,21.47
2019-04-07T09:15:32.855Z,20.93
2019-04-07T09:18:12.725Z,19.53
2019-04-07T09:21:15.668Z,18.80
2019-04-07T09:24:07.111Z,19.47
2019-04-07T09:26:52.414Z,22.83
2019-04-07T09:29:43.169Z,18.83
2019-04-07T09:32:46.021Z,19.27
2019-04-07T09:35:36.221Z,18.20
2019-04-07T09:38:26.603Z,19.53
2019-04-07T09:41:07.363Z,21.30
2019-04-07T09:43:55.620Z,18.37
2019-04-07T09:46:48.348Z,20.33
2019-04-07T09:49:35.338Z,18.33
2019-04-07T09:52:23.383Z,25.23
2019-04-07T09:55:19.998Z,18.87
2019-04-07T09:58:10.838Z,19.57
2019-04-07T10:00:59.688Z,19.73
2019-04-07T10:03:49.668Z,26.80
2019-04-07T10:06:39.269Z,20.93
2019-04-07T10:09:20.332Z,22.40
2019-04-07T10:12:28.134Z,19.10
2019-04-07T10:15:15.466Z,22.43
2019-04-07T10:18:01.870Z,20.53
2019-04-07T10:20:44.693Z,19.73
2019-04-07T10:23:38.562Z,21.43
2019-04-07T10:26:39.365Z,21.37
2019-04-07T10:29:32.969Z,22.30
2019-04-07T10:32:24.760Z,19.50
2019-04-07T10:35:14.029Z,15.83
2019-04-07T10:38:02.086Z,15.07
2019-04-07T10:40:51.222Z,20.43
2019-04-07T10:43:45.166Z,15.47
2019-04-07T10:46:38.045Z,17.97
2019-04-07T10:49:37.306Z,16.23
2019-04-07T10:52:32.634Z,16.27
2019-04-07T10:55:22.618Z,15.10
2019-04-07T10:58:10.559Z,16.87
2019-04-07T11:01:16.748Z,16.73
2019-04-07T11:04:01.862Z,17.13
2019-04-07T11:06:50.052Z,16.63
2019-04-07T11:09:38.944Z,17.87
2019-04-07T11:12:32.193Z,18.73
2019-04-07T11:15:24.968Z,19.00
2019-04-07T11:18:15.152Z,20.57
2019-04-07T11:21:12.077Z,17.53
2019-04-07T11:23:54.447Z,16.90
2019-04-07T11:26:56.817Z,16.93
2019-04-07T11:29:39.641Z,16.97
2019-04-07T11:32:30.417Z,18.23
2019-04-07T11:35:09.733Z,19.57
2019-04-07T11:37:47.383Z,15.73
2019-04-07T11:40:41.503Z,15.87
2019-04-07T11:43:28.010Z,14.40
2019-04-07T11:46:11.946Z,13.40
2019-04-07T11:48:47.735Z,13.17
2019-04-07T11:51:42.491Z,14.93
2019-04-07T11:54:28.261Z,13.93
2019-04-07T11:57:31.210Z,13.63
2019-04-07T12:00:20.891Z,12.00
2019-04-07T12:03:09.596Z,13.30
2019-04-07T12:06:14.226Z,10.73
2019-04-07T12:09:06.867Z,12.13
2019-04-07T12:11:50.455Z,12.47
2019-04-07T12:14:30.815Z,10.83
2019-04-07T12:17:26.285Z,12.63
2019-04-07T12:20:33.872Z,11.33
2019-04-07T12:23:25.688Z,11.27
2019-04-07T12:26:14.115Z,10.80
2019-04-07T12:29:02.927Z,12.33
2019-04-07T12:31:52.144Z,12.23
2019-04-07T12:34:44.044Z,11.73
2019-04-07T12:37:30.787Z,12.27
2019-04-07T12:40:22.456Z,10.97
2019-04-07T12:43:15.446Z,10.43
2019-04-07T12:45:55.562Z,10.53
2019-04-07T12:48:46.940Z,11.50
2019-04-07T12:51:43.049Z,10.40
2019-04-07T12:54:23.489Z,12.17
2019-04-07T12:57:16.849Z,10.17
2019-04-07T12:59:59.607Z,15.37
2019-04-07T13:02:56.704Z,11.23
2019-04-07T13:05:49.939Z,10.07
2019-04-07T13:08:43.580Z,9.73
2019-04-07T13:11:38.654Z,13.40
2019-04-07T13:14:38.570Z,13.17
2019-04-07T13:17:17.515Z,12.37
2019-04-07T13:20:05.153Z,11.30
2019-04-07T13:22:54.892Z,13.37
2019-04-07T13:25:45.470Z,12.00
2019-04-07T13:28:35.932Z,11.97
2019-04-07T13:31:16.217Z,11.03
2019-04-07T13:34:21.301Z,13.10
2019-04-07T13:37:17.620Z,13.33
2019-04-07T13:40:15.784Z,10.50
2019-04-07T13:43:18.691Z,13.67
2019-04-07T13:46:17.638Z,12.30
2019-04-07T13:48:54.781Z,13.17
2019-04-07T13:51:47.344Z,12.23
2019-04-07T13:54:55.877Z,12.90
2019-04-07T13:57:57.726Z,12.70
2019-04-07T14:00:47.758Z,13.50
2019-04-07T14:03:35.817Z,12.60
2019-04-07T14:06:29.495Z,13.47
2019-04-07T14:09:21.169Z,16.53
2019-04-07T14:12:12.829Z,13.37
2019-04-07T14:15:02.946Z,12.77
2019-04-07T14:17:51.799Z,12.83
2019-04-07T14:20:46.423Z,12.23
2019-04-07T14:23:41.014Z,12.70
2019-04-07T14:26:31.340Z,12.93
2019-04-07T14:29:24.621Z,11.50
2019-04-07T14:32:14.154Z,11.47
2019-04-07T14:35:02.292Z,12.43
2019-04-07T14:37:49.501Z,13.20
2019-04-07T14:40:57.672Z,12.07
2019-04-07T14:43:40.893Z,12.50
2019-04-07T14:46:29.137Z,11.90
2019-04-07T14:49:27.575Z,12.53
2019-04-07T14:52:05.662Z,12.20
2019-04-07T14:54:58.003Z,11.37
2019-04-07T14:57:34.438Z,14.70
2019-04-07T15:00:20.313Z,13.00
2019-04-07T15:02:51.730Z,11.93
2019-04-07T15:05:26.292Z,13.53
2019-04-07T15:08:16.392Z,13.07
2019-04-07T15:10:51.575Z,13.10
2019-04-07T15:13:28.061Z,14.43
2019-04-07T15:15:58.366Z,15.80
2019-04-07T15:18:29.805Z,14.20
2019-04-07T15:21:01.005Z,13.83
2019-04-07T15:23:33.451Z,13.70
2019-04-07T15:26:05.998Z,12.73
2019-04-07T15:28:38.382Z,14.87
2019-04-07T15:31:09.777Z,15.80
2019-04-07T15:33:42.449Z,14.30
2019-04-07T15:36:17.534Z,13.63
2019-04-07T15:38:47.547Z,15.37
2019-04-07T15:41:19.578Z,13.93
2019-04-07T15:43:50.965Z,17.20
2019-04-07T15:46:23.596Z,14.50
2019-04-07T15:48:56.745Z,15.50
2019-04-07T15:51:28.335Z,14.40
2019-04-07T15:54:00.647Z,15.27
2019-04-07T15:56:32.571Z,14.40
2019-04-07T15:59:03.730Z,14.50
2019-04-07T16:01:38.735Z,14.33
2019-04-07T16:04:09.725Z,15.73
2019-04-07T16:06:41.936Z,14.13
2019-04-07T16:09:28.413Z,16.47
2019-04-07T16:11:49.586Z,15.07
2019-04-07T16:14:20.883Z,14.30
2019-04-07T16:16:53.427Z,14.53
2019-04-07T16:19:37.258Z,15.20
2019-04-07T16:21:58.176Z,16.53
2019-04-07T16:24:31.516Z,13.33
2019-04-07T16:27:05.437Z,14.57
2019-04-07T16:29:36.485Z,16.47
2019-04-07T16:32:08.155Z,14.70
2019-04-07T16:34:42.182Z,14.43
2019-04-07T16:37:12.297Z,17.87
2019-04-07T16:39:44.529Z,30.80
2019-04-07T16:42:16.256Z,21.63
2019-04-07T16:44:48.315Z,21.97
2019-04-07T16:47:23.815Z,18.67
2019-04-07T16:49:52.424Z,17.50
2019-04-07T16:52:23.341Z,17.10
2019-04-07T16:54:54.737Z,17.73
2019-04-07T16:57:30.957Z,17.70
2019-04-07T17:00:00.297Z,16.67
2019-04-07T17:02:31.721Z,18.40
2019-04-07T17:05:02.837Z,20.03
2019-04-07T17:07:34.232Z,21.10
2019-04-07T17:10:06.855Z,16.57
2019-04-07T17:12:40.648Z,17.43
2019-04-07T17:15:12.292Z,17.83
2019-04-07T17:17:48.591Z,23.60
2019-04-07T17:20:18.985Z,21.03
2019-04-07T17:22:51.101Z,18.13
2019-04-07T17:25:22.879Z,17.53
2019-04-07T17:27:54.027Z,18.23
2019-04-07T17:30:27.153Z,19.13
2019-04-07T17:32:59.687Z,17.13
2019-04-07T17:35:30.774Z,19.23
2019-04-07T17:38:06.659Z,18.67
2019-04-07T17:40:45.216Z,18.10
2019-04-07T17:43:47.343Z,17.83
2019-04-07T17:46:27.514Z,19.27
2019-04-07T17:49:16.665Z,17.00
2019-04-07T17:51:58.613Z,18.43
2019-04-07T17:54:54.112Z,19.87
2019-04-07T17:57:37.076Z,20.10
2019-04-07T18:00:32.154Z,22.33
2019-04-07T18:03:16.355Z,20.90
2019-04-07T18:06:10.078Z,25.83
2019-04-07T18:08:49.585Z,26.53
2019-04-07T18:11:53.459Z,24.33
2019-04-07T18:14:38.606Z,24.20
2019-04-07T18:17:28.863Z,24.40
2019-04-07T18:20:28.293Z,27.57
2019-04-07T18:23:24.064Z,26.23
2019-04-07T18:26:06.313Z,26.13
2019-04-07T18:28:58.484Z,22.60
2019-04-07T18:31:40.333Z,23.87
2019-04-07T18:34:36.556Z,22.73
2019-04-07T18:37:26.141Z,22.83
2019-04-07T18:40:21.114Z,23.70
2019-04-07T18:43:13.850Z,23.33
2019-04-07T18:46:08.669Z,23.10
2019-04-07T18:49:01.149Z,21.83
2019-04-07T18:51:50.695Z,19.87
2019-04-07T18:54:44.547Z,21.90
2019-04-07T18:57:30.574Z,19.87
2019-04-07T19:00:21.952Z,19.00
2019-04-07T19:03:18.179Z,18.63
2019-04-07T19:05:55.456Z,20.43
2019-04-07T19:08:47.079Z,21.43
2019-04-07T19:11:32.658Z,21.33
2019-04-07T19:14:38.129Z,20.17
2019-04-07T19:17:03.305Z,21.43
2019-04-07T19:19:48.458Z,22.77
2019-04-07T19:22:36.710Z,18.23
2019-04-07T19:25:46.901Z,19.40
2019-04-07T19:28:42.738Z,21.13
2019-04-07T19:31:48.020Z,20.63
2019-04-07T19:34:45.665Z,20.70
2019-04-07T19:37:26.351Z,20.67
2019-04-07T19:40:23.573Z,22.47
2019-04-07T19:43:18.297Z,23.70
2019-04-07T19:46:09.109Z,23.80
2019-04-07T19:49:18.943Z,22.03
2019-04-07T19:52:07.058Z,22.47
2019-04-07T19:55:05.878Z,23.97
2019-04-07T19:57:48.933Z,25.17
2019-04-07T20:00:45.892Z,22.80
2019-04-07T20:03:26.373Z,25.90
2019-04-07T20:06:14.854Z,23.37
2019-04-07T20:09:23.594Z,24.23
2019-04-07T20:12:21.948Z,22.63
2019-04-07T20:15:16.032Z,21.57
2019-04-07T20:18:05.278Z,22.60
2019-04-07T20:20:45.027Z,24.67
2019-04-07T20:23:50.144Z,22.50
2019-04-07T20:27:28.100Z,25.07
2019-04-07T20:30:17.589Z,25.10
2019-04-07T20:33:17.159Z,25.10
2019-04-07T20:36:06.836Z,24.27
2019-04-07T20:38:49.931Z,26.83
2019-04-07T20:41:43.631Z,29.43
2019-04-07T20:44:34.029Z,25.07
2019-04-07T20:47:28.262Z,26.00
2019-04-07T20:50:24.083Z,24.10
2019-04-07T20:53:22.865Z,25.50
2019-04-07T20:56:11.558Z,24.93
2019-04-07T20:59:05.719Z,25.57
2019-04-07T21:02:01.596Z,25.20
2019-04-07T21:04:34.330Z,27.20
2019-04-07T21:07:24.996Z,23.33
2019-04-07T21:10:07.606Z,29.73
2019-04-07T21:13:03.416Z,23.47
2019-04-07T21:15:56.239Z,24.77
2019-04-07T21:18:46.883Z,24.63
2019-04-07T21:21:39.588Z,25.80
2019-04-07T21:24:49.756Z,24.40
2019-04-07T21:27:33.723Z,27.90
2019-04-07T21:30:24.889Z,24.97
2019-04-07T21:33:02.808Z,24.63
2019-04-07T21:35:58.978Z,26.07
2019-04-07T21:38:43.323Z,22.43
2019-04-07T21:41:41.513Z,26.80
2019-04-07T21:44:38.502Z,25.30
2019-04-07T21:47:44.075Z,24.37
2019-04-07T21:50:52.001Z,26.67
2019-04-07T21:53:36.810Z,25.43
2019-04-07T21:56:15.679Z,26.63
2019-04-07T21:59:04.348Z,24.60
2019-04-07T22:01:55.074Z,26.97
2019-04-07T22:04:54.562Z,28.23
2019-04-07T22:07:33.797Z,26.73
2019-04-07T22:10:07.325Z,28.57
2019-04-07T22:12:40.764Z,32.17
2019-04-07T22:15:14.069Z,27.50
2019-04-07T22:17:45.789Z,29.18
2019-04-07T22:20:18.930Z,27.80
2019-04-07T22:22:50.239Z,26.70
2019-04-07T22:25:30.722Z,30.63
2019-04-07T22:28:01.901Z,28.80
2019-04-07T22:30:36.072Z,30.30
2019-04-07T22:33:06.159Z,27.93
2019-04-07T22:35:41.195Z,28.07
2019-04-07T22:38:10.240Z,26.97
2019-04-07T22:40:41.637Z,32.27
2019-04-07T22:43:16.689Z,33.53
2019-04-07T22:45:55.768Z,29.27
2019-04-07T22:48:18.516Z,30.20
2019-04-07T22:50:49.788Z,32.17
2019-04-07T22:53:23.229Z,32.20
2019-04-07T22:55:54.743Z,35.00
2019-04-07T22:58:25.822Z,32.23
2019-04-07T23:00:57.003Z,31.47
2019-04-07T23:03:28.067Z,30.67
2019-04-07T23:05:59.376Z,31.87
2019-04-07T23:08:30.406Z,29.50
2019-04-07T23:11:02.189Z,31.00
2019-04-07T23:13:33.179Z,27.90
2019-04-07T23:16:10.773Z,30.45
2019-04-07T23:18:38.030Z,29.70
2019-04-07T23:21:10.203Z,29.83
2019-04-07T23:23:42.036Z,27.52
2019-04-07T23:26:13.871Z,26.83
2019-04-07T23:28:45.184Z,26.53
2019-04-07T23:31:16.723Z,31.67
2019-04-07T23:33:50.147Z,29.03
2019-04-07T23:36:22.113Z,30.60
2019-04-07T23:38:53.860Z,36.23
2019-04-07T23:41:25.609Z,37.30
2019-04-07T23:43:56.838Z,33.83
2019-04-07T23:46:28.514Z,37.67
2019-04-07T23:48:59.910Z,30.93
2019-04-07T23:51:30.975Z,33.03
2019-04-07T23:54:11.311Z,32.27
2019-04-07T23:56:44.035Z,29.23
2019-04-07T23:59:15.471Z,29.77
